sensor_id;sensor_type;location;lat;lon;timestamp;pressure;altitude;pressure_sealevel;temperature;humidity
41264;BME280;26998;48.714;9.414;2022-12-20T00:00:50;99417.63;;;-0.86;100.00
41264;BME280;26998;48.714;9.414;2022-12-20T00:03:17;99405.84;;;-0.80;100.00
41264;BME280;26998;48.714;9.414;2022-12-20T00:05:44;99409.50;;;-0.83;100.00
41264;BME280;26998;48.714;9.414;2022-12-20T00:08:11;99407.22;;;-0.87;100.00
41264;BME280;26998;48.714;9.414;2022-12-20T00:10:40;99401.13;;;-0.88;100.00
41264;BME280;26998;48.714;9.414;2022-12-20T00:13:07;99417.00;;;-0.89;100.00
41264;BME280;26998;48.714;9.414;2022-12-20T00:15:33;99420.56;;;-0.90;100.00
41264;BME280;26998;48.714;9.414;2022-12-20T00:18:00;99411.84;;;-0.91;100.00
41264;BME280;26998;48.714;9.414;2022-12-20T00:20:27;99397.91;;;-0.91;100.00
41264;BME280;26998;48.714;9.414;2022-12-20T00:22:54;99389.41;;;-0.95;100.00
41264;BME280;26998;48.714;9.414;2022-12-20T00:25:21;99387.53;;;-0.93;100.00
41264;BME280;26998;48.714;9.414;2022-12-20T00:27:48;99377.97;;;-0.94;100.00
41264;BME280;26998;48.714;9.414;2022-12-20T00:30:16;99378.91;;;-0.95;100.00
41264;BME280;26998;48.714;9.414;2022-12-20T00:32:43;99368.66;;;-0.98;100.00
41264;BME280;26998;48.714;9.414;2022-12-20T00:35:10;99367.09;;;-1.01;100.00
41264;BME280;26998;48.714;9.414;2022-12-20T00:37:37;99376.00;;;-1.03;100.00
41264;BME280;26998;48.714;9.414;2022-12-20T00:40:04;99372.69;;;-1.05;100.00
41264;BME280;26998;48.714;9.414;2022-12-20T00:42:31;99378.97;;;-1.08;100.00
41264;BME280;26998;48.714;9.414;2022-12-20T00:44:57;99373.94;;;-1.11;100.00
41264;BME280;26998;48.714;9.414;2022-12-20T00:47:24;99374.91;;;-1.12;100.00
41264;BME280;26998;48.714;9.414;2022-12-20T00:49:50;99385.50;;;-1.13;100.00
41264;BME280;26998;48.714;9.414;2022-12-20T00:52:17;99389.09;;;-1.14;100.00
41264;BME280;26998;48.714;9.414;2022-12-20T00:54:43;99394.53;;;-1.18;100.00
41264;BME280;26998;48.714;9.414;2022-12-20T00:57:10;99382.13;;;-1.16;100.00
41264;BME280;26998;48.714;9.414;2022-12-20T00:59:36;99385.94;;;-1.20;100.00
41264;BME280;26998;48.714;9.414;2022-12-20T01:02:03;99379.03;;;-1.21;100.00
41264;BME280;26998;48.714;9.414;2022-12-20T01:04:29;99370.56;;;-1.24;100.00
41264;BME280;26998;48.714;9.414;2022-12-20T01:06:56;99376.50;;;-1.22;100.00
41264;BME280;26998;48.714;9.414;2022-12-20T01:09:22;99377.03;;;-1.17;100.00
41264;BME280;26998;48.714;9.414;2022-12-20T01:11:49;99375.00;;;-1.13;100.00
41264;BME280;26998;48.714;9.414;2022-12-20T01:14:15;99361.06;;;-1.14;100.00
41264;BME280;26998;48.714;9.414;2022-12-20T01:16:44;99359.78;;;-1.08;100.00
41264;BME280;26998;48.714;9.414;2022-12-20T01:19:13;99359.44;;;-1.04;100.00
41264;BME280;26998;48.714;9.414;2022-12-20T01:21:40;99363.75;;;-1.03;100.00
41264;BME280;26998;48.714;9.414;2022-12-20T01:24:07;99377.69;;;-1.02;100.00
41264;BME280;26998;48.714;9.414;2022-12-20T01:26:34;99387.13;;;-1.00;100.00
41264;BME280;26998;48.714;9.414;2022-12-20T01:29:00;99409.06;;;-1.01;100.00
41264;BME280;26998;48.714;9.414;2022-12-20T01:31:28;99400.25;;;-1.00;100.00
41264;BME280;26998;48.714;9.414;2022-12-20T01:33:55;99382.28;;;-0.93;100.00
41264;BME280;26998;48.714;9.414;2022-12-20T01:36:25;99377.69;;;-1.02;100.00
41264;BME280;26998;48.714;9.414;2022-12-20T01:39:00;99392.63;;;-1.03;100.00
41264;BME280;26998;48.714;9.414;2022-12-20T01:41:29;99396.06;;;-1.02;100.00
41264;BME280;26998;48.714;9.414;2022-12-20T01:44:05;99373.16;;;-1.00;100.00
41264;BME280;26998;48.714;9.414;2022-12-20T01:46:48;99381.16;;;-1.02;100.00
41264;BME280;26998;48.714;9.414;2022-12-20T01:52:04;99361.56;;;-1.09;100.00
41264;BME280;26998;48.714;9.414;2022-12-20T01:54:58;99352.16;;;-1.00;100.00
41264;BME280;26998;48.714;9.414;2022-12-20T01:57:31;99345.94;;;-1.10;100.00
41264;BME280;26998;48.714;9.414;2022-12-20T01:59:59;99348.69;;;-1.12;100.00
41264;BME280;26998;48.714;9.414;2022-12-20T02:02:26;99356.44;;;-1.10;100.00
41264;BME280;26998;48.714;9.414;2022-12-20T02:04:53;99351.19;;;-1.10;100.00
41264;BME280;26998;48.714;9.414;2022-12-20T02:07:23;99354.63;;;-1.10;100.00
41264;BME280;26998;48.714;9.414;2022-12-20T02:09:52;99351.19;;;-1.10;100.00
41264;BME280;26998;48.714;9.414;2022-12-20T02:12:23;99348.47;;;-1.09;100.00
41264;BME280;26998;48.714;9.414;2022-12-20T02:18:16;99340.47;;;-1.07;100.00
41264;BME280;26998;48.714;9.414;2022-12-20T02:30:00;99327.25;;;-1.06;100.00
41264;BME280;26998;48.714;9.414;2022-12-20T02:32:32;99322.47;;;-1.01;100.00
41264;BME280;26998;48.714;9.414;2022-12-20T02:35:00;99307.69;;;-1.02;100.00
41264;BME280;26998;48.714;9.414;2022-12-20T02:37:26;99306.75;;;-1.01;100.00
41264;BME280;26998;48.714;9.414;2022-12-20T02:39:53;99302.31;;;-1.00;100.00
41264;BME280;26998;48.714;9.414;2022-12-20T02:42:23;99303.19;;;-1.00;100.00
41264;BME280;26998;48.714;9.414;2022-12-20T02:44:56;99310.09;;;-0.99;100.00
41264;BME280;26998;48.714;9.414;2022-12-20T02:47:29;99315.56;;;-1.02;100.00
41264;BME280;26998;48.714;9.414;2022-12-20T02:49:58;99309.25;;;-0.99;100.00
41264;BME280;26998;48.714;9.414;2022-12-20T02:52:26;99308.19;;;-0.97;100.00
41264;BME280;26998;48.714;9.414;2022-12-20T02:54:54;99311.06;;;-1.00;100.00
41264;BME280;26998;48.714;9.414;2022-12-20T02:57:28;99304.94;;;-1.00;100.00
41264;BME280;26998;48.714;9.414;2022-12-20T03:02:33;99301.50;;;-1.01;100.00
41264;BME280;26998;48.714;9.414;2022-12-20T03:05:00;99298.88;;;-1.01;100.00
41264;BME280;26998;48.714;9.414;2022-12-20T03:07:28;99303.19;;;-1.00;100.00
41264;BME280;26998;48.714;9.414;2022-12-20T03:09:54;99302.94;;;-0.97;100.00
41264;BME280;26998;48.714;9.414;2022-12-20T03:12:21;99317.75;;;-0.96;100.00
41264;BME280;26998;48.714;9.414;2022-12-20T03:14:47;99310.09;;;-0.99;100.00
41264;BME280;26998;48.714;9.414;2022-12-20T03:17:14;99289.34;;;-1.02;100.00
41264;BME280;26998;48.714;9.414;2022-12-20T03:19:41;99291.00;;;-1.01;100.00
41264;BME280;26998;48.714;9.414;2022-12-20T03:22:08;99294.34;;;-0.99;100.00
41264;BME280;26998;48.714;9.414;2022-12-20T03:24:34;99282.91;;;-0.98;100.00
41264;BME280;26998;48.714;9.414;2022-12-20T03:27:01;99268.88;;;-0.85;100.00
41264;BME280;26998;48.714;9.414;2022-12-20T03:29:27;99276.22;;;-0.90;100.00
41264;BME280;26998;48.714;9.414;2022-12-20T03:31:54;99275.53;;;-0.93;100.00
41264;BME280;26998;48.714;9.414;2022-12-20T03:34:21;99283.28;;;-0.91;100.00
41264;BME280;26998;48.714;9.414;2022-12-20T03:36:47;99283.28;;;-0.91;100.00
41264;BME280;26998;48.714;9.414;2022-12-20T03:39:13;99279.94;;;-0.93;100.00
41264;BME280;26998;48.714;9.414;2022-12-20T03:41:40;99269.78;;;-0.98;100.00
41264;BME280;26998;48.714;9.414;2022-12-20T03:44:07;99278.72;;;-1.00;100.00
41264;BME280;26998;48.714;9.414;2022-12-20T03:46:34;99273.00;;;-1.05;100.00
41264;BME280;26998;48.714;9.414;2022-12-20T03:49:00;99267.13;;;-1.09;100.00
41264;BME280;26998;48.714;9.414;2022-12-20T03:51:27;99267.47;;;-1.13;100.00
41264;BME280;26998;48.714;9.414;2022-12-20T03:53:54;99276.41;;;-1.16;100.00
41264;BME280;26998;48.714;9.414;2022-12-20T03:56:20;99276.84;;;-1.22;100.00
41264;BME280;26998;48.714;9.414;2022-12-20T03:58:46;99274.56;;;-1.27;100.00
41264;BME280;26998;48.714;9.414;2022-12-20T04:03:44;99278.13;;;-1.28;100.00
41264;BME280;26998;48.714;9.414;2022-12-20T04:06:10;99266.81;;;-1.28;100.00
41264;BME280;26998;48.714;9.414;2022-12-20T04:08:37;99257.16;;;-1.28;100.00
41264;BME280;26998;48.714;9.414;2022-12-20T04:11:03;99256.44;;;-1.30;100.00
41264;BME280;26998;48.714;9.414;2022-12-20T04:13:30;99258.09;;;-1.29;100.00
41264;BME280;26998;48.714;9.414;2022-12-20T04:15:56;99249.19;;;-1.26;100.00
41264;BME280;26998;48.714;9.414;2022-12-20T04:18:26;99252.88;;;-1.29;100.00
41264;BME280;26998;48.714;9.414;2022-12-20T04:20:52;99252.88;;;-1.29;100.00
41264;BME280;26998;48.714;9.414;2022-12-20T04:23:19;99255.47;;;-1.29;100.00
41264;BME280;26998;48.714;9.414;2022-12-20T04:25:45;99248.00;;;-1.22;100.00
41264;BME280;26998;48.714;9.414;2022-12-20T04:28:11;99227.47;;;-1.28;100.00
41264;BME280;26998;48.714;9.414;2022-12-20T04:30:38;99217.72;;;-1.26;100.00
41264;BME280;26998;48.714;9.414;2022-12-20T04:33:04;99213.19;;;-1.24;100.00
41264;BME280;26998;48.714;9.414;2022-12-20T04:35:31;99213.91;;;-1.22;100.00
41264;BME280;26998;48.714;9.414;2022-12-20T04:37:57;99219.06;;;-1.21;100.00
41264;BME280;26998;48.714;9.414;2022-12-20T04:40:24;99230.47;;;-1.22;100.00
41264;BME280;26998;48.714;9.414;2022-12-20T04:42:50;99225.84;;;-1.18;100.00
41264;BME280;26998;48.714;9.414;2022-12-20T04:45:17;99235.03;;;-1.12;100.00
41264;BME280;26998;48.714;9.414;2022-12-20T04:47:43;99235.25;;;-1.16;100.00
41264;BME280;26998;48.714;9.414;2022-12-20T04:50:10;99241.25;;;-1.13;100.00
41264;BME280;26998;48.714;9.414;2022-12-20T04:52:37;99238.75;;;-1.15;100.00
41264;BME280;26998;48.714;9.414;2022-12-20T04:55:12;99235.91;;;-1.12;100.00
41264;BME280;26998;48.714;9.414;2022-12-20T04:57:39;99220.84;;;-1.10;100.00
41264;BME280;26998;48.714;9.414;2022-12-20T05:00:05;99220.16;;;-1.12;100.00
41264;BME280;26998;48.714;9.414;2022-12-20T05:02:32;99230.66;;;-1.12;100.00
41264;BME280;26998;48.714;9.414;2022-12-20T05:04:59;99233.50;;;-1.04;100.00
41264;BME280;26998;48.714;9.414;2022-12-20T05:07:25;99248.56;;;-1.06;100.00
41264;BME280;26998;48.714;9.414;2022-12-20T05:09:52;99231.03;;;-1.05;100.00
41264;BME280;26998;48.714;9.414;2022-12-20T05:12:18;99225.78;;;-1.05;100.00
41264;BME280;26998;48.714;9.414;2022-12-20T05:14:44;99218.38;;;-1.00;100.00
41264;BME280;26998;48.714;9.414;2022-12-20T05:17:11;99219.69;;;-0.95;100.00
41264;BME280;26998;48.714;9.414;2022-12-20T05:19:37;99217.06;;;-0.95;100.00
41264;BME280;26998;48.714;9.414;2022-12-20T05:22:04;99211.84;;;-0.95;100.00
41264;BME280;26998;48.714;9.414;2022-12-20T05:24:31;99226.50;;;-0.92;100.00
41264;BME280;26998;48.714;9.414;2022-12-20T05:26:57;99211.38;;;-0.88;100.00
41264;BME280;26998;48.714;9.414;2022-12-20T05:29:24;99207.06;;;-0.78;100.00
41264;BME280;26998;48.714;9.414;2022-12-20T05:31:51;99208.19;;;-0.81;100.00
41264;BME280;26998;48.714;9.414;2022-12-20T05:34:17;99201.69;;;-0.88;100.00
41264;BME280;26998;48.714;9.414;2022-12-20T05:36:44;99204.31;;;-0.88;100.00
41264;BME280;26998;48.714;9.414;2022-12-20T05:39:10;99202.75;;;-0.90;100.00
41264;BME280;26998;48.714;9.414;2022-12-20T05:41:37;99194.56;;;-0.86;100.00
41264;BME280;26998;48.714;9.414;2022-12-20T05:44:05;99189.53;;;-0.89;100.00
41264;BME280;26998;48.714;9.414;2022-12-20T05:46:32;99189.66;;;-0.90;100.00
41264;BME280;26998;48.714;9.414;2022-12-20T05:48:59;99194.88;;;-0.90;100.00
41264;BME280;26998;48.714;9.414;2022-12-20T05:51:25;99200.13;;;-0.90;100.00
41264;BME280;26998;48.714;9.414;2022-12-20T05:53:51;99196.44;;;-0.88;100.00
41264;BME280;26998;48.714;9.414;2022-12-20T05:56:18;99173.94;;;-0.79;100.00
41264;BME280;26998;48.714;9.414;2022-12-20T05:58:44;99152.56;;;-0.86;100.00
41264;BME280;26998;48.714;9.414;2022-12-20T06:01:11;99176.28;;;-0.87;100.00
41264;BME280;26998;48.714;9.414;2022-12-20T06:03:38;99186.78;;;-0.87;100.00
41264;BME280;26998;48.714;9.414;2022-12-20T06:06:05;99185.03;;;-0.76;100.00
41264;BME280;26998;48.714;9.414;2022-12-20T06:08:39;99176.56;;;-0.79;100.00
41264;BME280;26998;48.714;9.414;2022-12-20T06:11:06;99169.16;;;-0.85;100.00
41264;BME280;26998;48.714;9.414;2022-12-20T06:13:32;99171.19;;;-0.89;100.00
41264;BME280;26998;48.714;9.414;2022-12-20T06:15:59;99167.97;;;-0.93;100.00
41264;BME280;26998;48.714;9.414;2022-12-20T06:18:25;99162.47;;;-0.89;100.00
41264;BME280;26998;48.714;9.414;2022-12-20T06:20:52;99171.50;;;-0.94;100.00
41264;BME280;26998;48.714;9.414;2022-12-20T06:23:19;99173.44;;;-0.96;100.00
41264;BME280;26998;48.714;9.414;2022-12-20T06:25:45;99182.25;;;-0.97;100.00
41264;BME280;26998;48.714;9.414;2022-12-20T06:28:12;99177.97;;;-0.98;100.00
41264;BME280;26998;48.714;9.414;2022-12-20T06:30:38;99179.88;;;-1.00;100.00
41264;BME280;26998;48.714;9.414;2022-12-20T06:33:05;99173.91;;;-1.02;100.00
41264;BME280;26998;48.714;9.414;2022-12-20T06:35:31;99179.03;;;-1.00;100.00
41264;BME280;26998;48.714;9.414;2022-12-20T06:37:58;99182.59;;;-1.01;100.00
41264;BME280;26998;48.714;9.414;2022-12-20T06:40:24;99182.50;;;-1.00;100.00
41264;BME280;26998;48.714;9.414;2022-12-20T06:42:51;99185.13;;;-1.00;100.00
41264;BME280;26998;48.714;9.414;2022-12-20T06:45:17;99189.66;;;-1.02;100.00
41264;BME280;26998;48.714;9.414;2022-12-20T06:47:44;99188.59;;;-0.99;100.00
41264;BME280;26998;48.714;9.414;2022-12-20T06:50:10;99183.34;;;-0.99;100.00
41264;BME280;26998;48.714;9.414;2022-12-20T06:52:37;99193.69;;;-0.98;100.00
41264;BME280;26998;48.714;9.414;2022-12-20T06:55:04;99191.06;;;-0.98;100.00
41264;BME280;26998;48.714;9.414;2022-12-20T06:57:30;99200.59;;;-0.97;100.00
41264;BME280;26998;48.714;9.414;2022-12-20T06:59:57;99194.44;;;-0.96;100.00
41264;BME280;26998;48.714;9.414;2022-12-20T07:02:23;99200.59;;;-0.97;100.00
41264;BME280;26998;48.714;9.414;2022-12-20T07:04:53;99197.06;;;-0.96;100.00
41264;BME280;26998;48.714;9.414;2022-12-20T07:07:19;99195.13;;;-0.94;100.00
41264;BME280;26998;48.714;9.414;2022-12-20T07:09:46;99191.44;;;-0.91;100.00
41264;BME280;26998;48.714;9.414;2022-12-20T07:12:12;99183.69;;;-0.93;100.00
41264;BME280;26998;48.714;9.414;2022-12-20T07:14:39;99177.25;;;-0.88;100.00
41264;BME280;26998;48.714;9.414;2022-12-20T07:17:05;99179.66;;;-0.85;100.00
41264;BME280;26998;48.714;9.414;2022-12-20T07:19:33;99184.66;;;-0.82;100.00
41264;BME280;26998;48.714;9.414;2022-12-20T07:21:59;99186.31;;;-0.81;100.00
41264;BME280;26998;48.714;9.414;2022-12-20T07:24:26;99175.72;;;-0.80;100.00
41264;BME280;26998;48.714;9.414;2022-12-20T07:26:52;99181.06;;;-0.81;100.00
41264;BME280;26998;48.714;9.414;2022-12-20T07:29:19;99188.00;;;-0.80;100.00
41264;BME280;26998;48.714;9.414;2022-12-20T07:31:45;99195.16;;;-0.82;100.00
41264;BME280;26998;48.714;9.414;2022-12-20T07:34:12;99181.94;;;-0.81;100.00
41264;BME280;26998;48.714;9.414;2022-12-20T07:36:38;99195.66;;;-0.77;100.00
41264;BME280;26998;48.714;9.414;2022-12-20T07:39:05;99187.41;;;-0.73;100.00
41264;BME280;26998;48.714;9.414;2022-12-20T07:41:31;99184.53;;;-0.70;100.00
41264;BME280;26998;48.714;9.414;2022-12-20T07:43:58;99183.47;;;-0.67;100.00
41264;BME280;26998;48.714;9.414;2022-12-20T07:46:25;99186.84;;;-0.65;100.00
41264;BME280;26998;48.714;9.414;2022-12-20T07:48:52;99176.78;;;-0.60;100.00
41264;BME280;26998;48.714;9.414;2022-12-20T07:51:28;99168.91;;;-0.60;100.00
41264;BME280;26998;48.714;9.414;2022-12-20T07:54:21;99176.56;;;-0.57;100.00
41264;BME280;26998;48.714;9.414;2022-12-20T07:56:53;99172.75;;;-0.53;100.00
41264;BME280;26998;48.714;9.414;2022-12-20T07:59:28;99187.16;;;-0.47;100.00
41264;BME280;26998;48.714;9.414;2022-12-20T08:01:57;99185.03;;;-0.42;100.00
41264;BME280;26998;48.714;9.414;2022-12-20T08:04:32;99180.63;;;-0.30;100.00
41264;BME280;26998;48.714;9.414;2022-12-20T08:07:00;99179.66;;;-0.29;100.00
41264;BME280;26998;48.714;9.414;2022-12-20T08:09:29;99183.44;;;-0.11;100.00
41264;BME280;26998;48.714;9.414;2022-12-20T08:11:57;99181.88;;;-0.02;100.00
41264;BME280;26998;48.714;9.414;2022-12-20T08:14:23;99188.88;;;0.09;100.00
41264;BME280;26998;48.714;9.414;2022-12-20T08:16:50;99189.59;;;0.11;100.00
41264;BME280;26998;48.714;9.414;2022-12-20T08:19:16;99184.03;;;0.04;100.00
41264;BME280;26998;48.714;9.414;2022-12-20T08:21:43;99181.25;;;0.06;100.00
41264;BME280;26998;48.714;9.414;2022-12-20T08:24:09;99180.41;;;0.05;100.00
41264;BME280;26998;48.714;9.414;2022-12-20T08:26:39;99187.72;;;0.13;100.00
41264;BME280;26998;48.714;9.414;2022-12-20T08:29:06;99186.16;;;0.10;100.00
41264;BME280;26998;48.714;9.414;2022-12-20T08:31:40;99181.97;;;0.08;100.00
41264;BME280;26998;48.714;9.414;2022-12-20T08:34:15;99183.88;;;0.17;100.00
41264;BME280;26998;48.714;9.414;2022-12-20T08:36:41;99183.72;;;0.18;100.00
41264;BME280;26998;48.714;9.414;2022-12-20T08:39:07;99182.72;;;0.31;100.00
41264;BME280;26998;48.714;9.414;2022-12-20T08:41:34;99171.34;;;0.41;100.00
41264;BME280;26998;48.714;9.414;2022-12-20T08:44:01;99175.78;;;0.41;100.00
41264;BME280;26998;48.714;9.414;2022-12-20T08:46:28;99166.59;;;0.35;100.00
41264;BME280;26998;48.714;9.414;2022-12-20T08:48:55;99161.91;;;0.39;100.00
41264;BME280;26998;48.714;9.414;2022-12-20T08:51:21;99162.25;;;0.45;100.00
41264;BME280;26998;48.714;9.414;2022-12-20T08:53:48;99162.31;;;0.55;100.00
41264;BME280;26998;48.714;9.414;2022-12-20T08:56:16;99162.63;;;0.62;100.00
41264;BME280;26998;48.714;9.414;2022-12-20T08:58:43;99170.28;;;0.65;100.00
41264;BME280;26998;48.714;9.414;2022-12-20T09:01:12;99168.38;;;0.67;100.00
41264;BME280;26998;48.714;9.414;2022-12-20T09:03:39;99163.94;;;0.67;100.00
41264;BME280;26998;48.714;9.414;2022-12-20T09:06:08;99175.03;;;0.71;100.00
41264;BME280;26998;48.714;9.414;2022-12-20T09:08:37;99177.81;;;0.69;100.00
41264;BME280;26998;48.714;9.414;2022-12-20T09:13:35;99185.50;;;0.82;100.00
41264;BME280;26998;48.714;9.414;2022-12-20T09:16:10;99191.34;;;0.86;100.00
41264;BME280;26998;48.714;9.414;2022-12-20T09:18:37;99199.03;;;0.99;100.00
41264;BME280;26998;48.714;9.414;2022-12-20T09:21:05;99208.44;;;1.12;100.00
41264;BME280;26998;48.714;9.414;2022-12-20T09:23:33;99221.50;;;1.24;100.00
41264;BME280;26998;48.714;9.414;2022-12-20T09:26:09;99239.50;;;1.19;100.00
41264;BME280;26998;48.714;9.414;2022-12-20T09:28:36;99254.19;;;1.00;100.00
41264;BME280;26998;48.714;9.414;2022-12-20T09:31:04;99260.72;;;1.06;100.00
41264;BME280;26998;48.714;9.414;2022-12-20T09:33:32;99265.16;;;1.05;100.00
41264;BME280;26998;48.714;9.414;2022-12-20T09:36:00;99270.44;;;1.05;100.00
41264;BME280;26998;48.714;9.414;2022-12-20T09:38:27;99265.41;;;1.02;100.00
41264;BME280;26998;48.714;9.414;2022-12-20T09:41:00;99266.59;;;1.09;100.00
41264;BME280;26998;48.714;9.414;2022-12-20T09:43:27;99278.13;;;1.18;100.00
41264;BME280;26998;48.714;9.414;2022-12-20T09:45:57;99284.13;;;1.20;100.00
41264;BME280;26998;48.714;9.414;2022-12-20T09:48:28;99292.75;;;1.22;100.00
41264;BME280;26998;48.714;9.414;2022-12-20T09:56:19;99309.88;;;1.37;100.00
41264;BME280;26998;48.714;9.414;2022-12-20T09:58:56;99327.09;;;1.42;100.00
41264;BME280;26998;48.714;9.414;2022-12-20T10:01:26;99318.16;;;1.54;100.00
41264;BME280;26998;48.714;9.414;2022-12-20T10:04:05;99328.50;;;1.67;100.00
41264;BME280;26998;48.714;9.414;2022-12-20T10:17:45;99388.50;;;2.36;100.00
41264;BME280;26998;48.714;9.414;2022-12-20T10:20:27;99405.56;;;2.62;100.00
41264;BME280;26998;48.714;9.414;2022-12-20T10:23:03;99431.78;;;2.54;100.00
41264;BME280;26998;48.714;9.414;2022-12-20T10:25:33;99453.63;;;2.35;100.00
41264;BME280;26998;48.714;9.414;2022-12-20T10:28:03;99455.78;;;2.51;100.00
41264;BME280;26998;48.714;9.414;2022-12-20T10:30:31;99468.78;;;2.43;100.00
41264;BME280;26998;48.714;9.414;2022-12-20T10:32:58;99474.84;;;2.34;100.00
41264;BME280;26998;48.714;9.414;2022-12-20T10:35:30;99466.41;;;2.40;100.00
41264;BME280;26998;48.714;9.414;2022-12-20T10:38:07;99462.13;;;2.39;100.00
41264;BME280;26998;48.714;9.414;2022-12-20T10:43:39;99460.94;;;2.52;100.00
41264;BME280;26998;48.714;9.414;2022-12-20T10:46:08;99458.06;;;2.35;100.00
41264;BME280;26998;48.714;9.414;2022-12-20T10:48:41;99439.81;;;2.22;100.00
41264;BME280;26998;48.714;9.414;2022-12-20T10:53:57;99408.38;;;2.09;100.00
41264;BME280;26998;48.714;9.414;2022-12-20T10:56:32;99391.28;;;2.03;100.00
41264;BME280;26998;48.714;9.414;2022-12-20T11:01:47;99361.16;;;1.96;100.00
41264;BME280;26998;48.714;9.414;2022-12-20T11:04:31;99340.16;;;1.95;100.00
41264;BME280;26998;48.714;9.414;2022-12-20T11:06:59;99330.34;;;1.97;100.00
41264;BME280;26998;48.714;9.414;2022-12-20T11:12:20;99317.88;;;2.08;100.00
41264;BME280;26998;48.714;9.414;2022-12-20T11:14:47;99319.31;;;2.13;100.00
41264;BME280;26998;48.714;9.414;2022-12-20T11:20:00;99314.41;;;2.08;100.00
41264;BME280;26998;48.714;9.414;2022-12-20T11:25:36;99299.03;;;2.13;100.00
41264;BME280;26998;48.714;9.414;2022-12-20T11:28:27;99304.59;;;2.10;100.00
41264;BME280;26998;48.714;9.414;2022-12-20T11:31:04;99295.69;;;2.11;100.00
41264;BME280;26998;48.714;9.414;2022-12-20T11:42:45;99255.47;;;2.09;100.00
41264;BME280;26998;48.714;9.414;2022-12-20T11:45:30;99251.44;;;2.15;100.00
41264;BME280;26998;48.714;9.414;2022-12-20T11:51:08;99245.94;;;2.27;100.00
41264;BME280;26998;48.714;9.414;2022-12-20T11:54:02;99254.72;;;2.47;100.00
41264;BME280;26998;48.714;9.414;2022-12-20T11:56:34;99255.69;;;2.56;100.00
41264;BME280;26998;48.714;9.414;2022-12-20T11:59:11;99260.28;;;2.73;100.00
41264;BME280;26998;48.714;9.414;2022-12-20T12:04:49;99302.38;;;2.75;100.00
41264;BME280;26998;48.714;9.414;2022-12-20T12:07:24;99310.97;;;2.67;100.00
41264;BME280;26998;48.714;9.414;2022-12-20T12:09:57;99301.97;;;2.80;100.00
41264;BME280;26998;48.714;9.414;2022-12-20T12:12:45;99310.88;;;2.98;100.00
41264;BME280;26998;48.714;9.414;2022-12-20T12:18:18;99332.16;;;3.06;100.00
41264;BME280;26998;48.714;9.414;2022-12-20T12:26:26;99341.44;;;2.91;100.00
41264;BME280;26998;48.714;9.414;2022-12-20T12:28:55;99342.28;;;2.91;100.00
41264;BME280;26998;48.714;9.414;2022-12-20T12:31:28;99345.19;;;2.88;100.00
41264;BME280;26998;48.714;9.414;2022-12-20T12:34:06;99328.66;;;2.86;100.00
41264;BME280;26998;48.714;9.414;2022-12-20T12:36:44;99335.91;;;2.94;100.00
41264;BME280;26998;48.714;9.414;2022-12-20T12:39:22;99335.19;;;3.01;100.00
41264;BME280;26998;48.714;9.414;2022-12-20T12:47:33;99340.06;;;3.06;100.00
41264;BME280;26998;48.714;9.414;2022-12-20T12:50:01;99346.47;;;3.13;100.00
41264;BME280;26998;48.714;9.414;2022-12-20T12:52:44;99344.09;;;3.30;100.00
41264;BME280;26998;48.714;9.414;2022-12-20T13:01:07;99344.09;;;3.49;100.00
41264;BME280;26998;48.714;9.414;2022-12-20T13:03:43;99344.78;;;3.32;100.00
41264;BME280;26998;48.714;9.414;2022-12-20T13:11:45;99322.00;;;3.11;100.00
41264;BME280;26998;48.714;9.414;2022-12-20T13:16:44;99298.53;;;3.18;100.00
41264;BME280;26998;48.714;9.414;2022-12-20T13:19:33;99295.88;;;3.18;100.00
41264;BME280;26998;48.714;9.414;2022-12-20T13:29:54;99291.13;;;3.02;100.00
41264;BME280;26998;48.714;9.414;2022-12-20T13:40:33;99258.19;;;3.16;100.00
41264;BME280;26998;48.714;9.414;2022-12-20T13:43:20;99265.81;;;3.29;100.00
41264;BME280;26998;48.714;9.414;2022-12-20T13:45:54;99269.72;;;3.24;100.00
41264;BME280;26998;48.714;9.414;2022-12-20T13:48:29;99271.81;;;3.21;100.00
41264;BME280;26998;48.714;9.414;2022-12-20T13:50:57;99270.44;;;3.07;100.00
41264;BME280;26998;48.714;9.414;2022-12-20T13:53:25;99265.97;;;2.98;100.00
41264;BME280;26998;48.714;9.414;2022-12-20T13:55:52;99258.78;;;3.00;100.00
41264;BME280;26998;48.714;9.414;2022-12-20T13:58:24;99250.03;;;2.99;100.00
41264;BME280;26998;48.714;9.414;2022-12-20T14:00:52;99235.84;;;3.00;100.00
41264;BME280;26998;48.714;9.414;2022-12-20T14:05:52;99203.16;;;3.01;100.00
41264;BME280;26998;48.714;9.414;2022-12-20T14:08:25;99188.56;;;3.07;100.00
41264;BME280;26998;48.714;9.414;2022-12-20T14:10:52;99177.59;;;3.02;100.00
41264;BME280;26998;48.714;9.414;2022-12-20T14:13:20;99172.31;;;3.02;100.00
41264;BME280;26998;48.714;9.414;2022-12-20T14:15:47;99165.75;;;3.16;100.00
41264;BME280;26998;48.714;9.414;2022-12-20T14:18:22;99153.50;;;3.24;100.00
41264;BME280;26998;48.714;9.414;2022-12-20T14:20:54;99154.63;;;3.22;100.00
41264;BME280;26998;48.714;9.414;2022-12-20T14:23:24;99167.00;;;3.21;100.00
41264;BME280;26998;48.714;9.414;2022-12-20T14:26:00;99189.94;;;3.21;100.00
41264;BME280;26998;48.714;9.414;2022-12-20T14:28:36;99183.56;;;3.04;100.00
41264;BME280;26998;48.714;9.414;2022-12-20T14:31:05;99179.69;;;2.98;100.00
41264;BME280;26998;48.714;9.414;2022-12-20T14:38:44;99155.38;;;2.95;100.00
41264;BME280;26998;48.714;9.414;2022-12-20T14:41:38;99148.19;;;2.87;100.00
41264;BME280;26998;48.714;9.414;2022-12-20T14:46:32;99134.72;;;2.81;100.00
41264;BME280;26998;48.714;9.414;2022-12-20T14:51:37;99114.16;;;2.74;100.00
41264;BME280;26998;48.714;9.414;2022-12-20T14:54:04;99120.81;;;2.78;100.00
41264;BME280;26998;48.714;9.414;2022-12-20T14:56:30;99120.97;;;2.67;100.00
41264;BME280;26998;48.714;9.414;2022-12-20T14:59:05;99108.88;;;2.65;100.00
41264;BME280;26998;48.714;9.414;2022-12-20T15:01:38;99112.50;;;2.64;100.00
41264;BME280;26998;48.714;9.414;2022-12-20T15:04:22;99098.34;;;2.55;100.00
41264;BME280;26998;48.714;9.414;2022-12-20T15:06:49;99092.78;;;2.58;100.00
41264;BME280;26998;48.714;9.414;2022-12-20T15:09:16;99088.63;;;2.46;100.00
41264;BME280;26998;48.714;9.414;2022-12-20T15:11:44;99078.50;;;2.51;100.00
41264;BME280;26998;48.714;9.414;2022-12-20T15:14:21;99078.50;;;2.41;100.00